Time;durP1;ratioP1;P1;durP2;ratioP2;P2;SDS_P1;SDS_P2;PMS_P1;PMS_P2;Temp;Humidity;BMP_temperature;BMP_pressure;BME280_temperature;BME280_humidity;BME280_pressure;Samples;Min_cycle;Max_cycle;Signal;HPM_P1;HPM_P2
2023/01/01 00:01:09;;;;;;;18.87;10.93;;;15.30;89.50;;;;;;5041782;28;20456;-85
2023/01/01 00:03:37;;;;;;;15.67;7.53;;;15.10;90.10;;;;;;5042304;28;20477;-85
2023/01/01 00:06:06;;;;;;;16.37;7.17;;;15.20;88.80;;;;;;5042517;28;20564;-85
2023/01/01 00:08:34;;;;;;;17.63;6.43;;;15.20;89.90;;;;;;5042499;28;20812;-85
2023/01/01 00:11:01;;;;;;;16.27;7.20;;;15.20;89.40;;;;;;5044535;28;20454;-86
2023/01/01 00:13:28;;;;;;;14.77;6.80;;;15.00;90.30;;;;;;5041409;28;20450;-85
2023/01/01 00:15:55;;;;;;;11.40;5.53;;;15.00;90.10;;;;;;5042996;28;20478;-85
2023/01/01 00:18:22;;;;;;;15.03;6.37;;;14.80;90.40;;;;;;5042360;28;20456;-85
2023/01/01 00:20:50;;;;;;;10.70;5.97;;;14.90;90.10;;;;;;5042929;28;20954;-85
2023/01/01 00:23:17;;;;;;;15.93;5.50;;;14.90;90.00;;;;;;5042092;28;20532;-85
2023/01/01 00:25:44;;;;;;;12.17;4.57;;;14.90;90.00;;;;;;5041883;28;21070;-86
2023/01/01 00:28:10;;;;;;;8.00;4.57;;;14.90;89.10;;;;;;5042572;28;20454;-87
2023/01/01 00:30:40;;;;;;;10.80;4.97;;;14.80;89.10;;;;;;5043051;28;20489;-86
2023/01/01 00:33:07;;;;;;;10.37;4.40;;;14.70;88.60;;;;;;5044052;28;20472;-86
2023/01/01 00:35:34;;;;;;;14.50;4.50;;;14.60;89.40;;;;;;5043317;28;20483;-86
2023/01/01 00:38:02;;;;;;;9.30;4.17;;;14.40;89.40;;;;;;5042562;28;20456;-85
2023/01/01 00:40:29;;;;;;;14.30;4.20;;;14.50;88.80;;;;;;5043035;28;20453;-86
2023/01/01 00:42:55;;;;;;;10.90;3.53;;;14.50;87.10;;;;;;5042930;28;20479;-86
2023/01/01 00:45:22;;;;;;;9.20;3.03;;;14.40;88.30;;;;;;5042719;28;20564;-85
2023/01/01 00:47:49;;;;;;;10.00;3.77;;;14.40;87.40;;;;;;5042579;28;20463;-85
2023/01/01 00:50:16;;;;;;;9.60;3.13;;;14.30;88.60;;;;;;5042057;28;20450;-86
2023/01/01 00:52:43;;;;;;;9.20;3.60;;;14.30;88.60;;;;;;5044018;28;20445;-86
2023/01/01 00:55:11;;;;;;;13.57;3.30;;;14.20;89.20;;;;;;5042261;28;20555;-87
2023/01/01 00:57:38;;;;;;;6.20;2.53;;;14.10;88.10;;;;;;5043806;28;20824;-87
2023/01/01 01:00:07;;;;;;;10.50;2.60;;;14.20;86.70;;;;;;5043015;28;20458;-85
2023/01/01 01:02:34;;;;;;;7.30;3.30;;;14.40;86.50;;;;;;5043673;28;20448;-86
2023/01/01 01:05:02;;;;;;;8.13;3.10;;;14.30;87.60;;;;;;5042342;28;20480;-84
2023/01/01 01:07:34;;;;;;;5.80;2.20;;;14.30;86.70;;;;;;5042176;28;20520;-85
2023/01/01 01:10:00;;;;;;;8.27;2.57;;;14.30;87.40;;;;;;5042086;28;20540;-85
2023/01/01 01:12:29;;;;;;;8.53;2.30;;;14.30;84.50;;;;;;5040557;28;20519;-85
2023/01/01 01:14:55;;;;;;;4.77;1.67;;;14.40;85.30;;;;;;5041154;28;20479;-85
2023/01/01 01:17:22;;;;;;;10.40;2.20;;;14.40;81.20;;;;;;5041073;28;20460;-85
2023/01/01 01:19:49;;;;;;;7.40;2.40;;;14.60;82.10;;;;;;5041392;28;20530;-85
2023/01/01 01:22:16;;;;;;;7.90;1.90;;;14.50;81.20;;;;;;5040488;28;20464;-85
2023/01/01 01:24:42;;;;;;;7.80;2.90;;;14.60;83.20;;;;;;5040189;28;20836;-86
2023/01/01 01:27:09;;;;;;;7.80;2.90;;;14.40;83.70;;;;;;5042340;28;20485;-85
2023/01/01 01:29:37;;;;;;;4.63;1.50;;;14.50;81.10;;;;;;5041768;28;20440;-85
2023/01/01 01:32:05;;;;;;;5.27;2.00;;;14.60;81.20;;;;;;5041694;28;20454;-86
2023/01/01 01:34:32;;;;;;;6.20;2.10;;;14.50;81.80;;;;;;5021356;28;20530;-84
2023/01/01 01:36:58;;;;;;;6.03;1.97;;;14.40;83.60;;;;;;5025936;28;20841;-86
2023/01/01 01:39:25;;;;;;;6.90;2.10;;;14.30;83.40;;;;;;5040060;28;20453;-86
2023/01/01 01:41:52;;;;;;;7.77;2.23;;;14.30;84.50;;;;;;5040723;28;20454;-85
2023/01/01 01:44:56;;;;;;;7.23;1.80;;;14.20;84.20;;;;;;5040600;28;20484;-85
2023/01/01 01:47:28;;;;;;;9.70;2.37;;;14.10;85.30;;;;;;5042872;28;20458;-85
2023/01/01 01:50:00;;;;;;;6.07;1.90;;;14.10;86.90;;;;;;5042233;28;20465;-85
2023/01/01 01:52:28;;;;;;;5.10;1.90;;;14.10;83.50;;;;;;5043964;28;20459;-85
2023/01/01 01:54:56;;;;;;;6.63;2.10;;;14.20;80.80;;;;;;5043533;28;20449;-87
2023/01/01 01:57:24;;;;;;;5.23;1.60;;;14.30;82.30;;;;;;5043378;28;20453;-86
2023/01/01 01:59:56;;;;;;;6.03;1.90;;;14.30;82.60;;;;;;5043735;28;20459;-86
2023/01/01 02:02:31;;;;;;;11.97;2.17;;;14.40;80.70;;;;;;5042898;28;20459;-85
2023/01/01 02:04:58;;;;;;;6.20;1.80;;;14.40;81.00;;;;;;5042867;28;20506;-84
2023/01/01 02:07:26;;;;;;;8.00;1.40;;;14.40;81.00;;;;;;5042886;28;20444;-85
2023/01/01 02:09:54;;;;;;;5.90;1.70;;;14.40;81.00;;;;;;5043394;28;20982;-86
2023/01/01 02:12:20;;;;;;;5.57;1.73;;;14.40;81.00;;;;;;5042966;28;20456;-85
2023/01/01 02:14:47;;;;;;;4.30;1.30;;;14.40;81.00;;;;;;5042137;28;20545;-85
2023/01/01 02:17:22;;;;;;;5.53;1.40;;;14.30;80.90;;;;;;5042102;28;20476;-86
2023/01/01 02:20:02;;;;;;;5.60;2.00;;;14.30;82.40;;;;;;5043825;28;20459;-86
2023/01/01 02:22:38;;;;;;;6.00;1.90;;;14.40;81.80;;;;;;5042830;28;20448;-86
2023/01/01 02:25:14;;;;;;;7.10;2.10;;;14.40;82.70;;;;;;5041926;28;20858;-85
2023/01/01 02:27:49;;;;;;;6.27;1.73;;;14.30;80.90;;;;;;5042176;28;20447;-86
2023/01/01 02:30:18;;;;;;;6.83;1.77;;;14.40;80.70;;;;;;5043700;28;20452;-85
2023/01/01 02:32:49;;;;;;;5.53;2.03;;;14.40;81.00;;;;;;5043104;28;20478;-86
2023/01/01 02:35:37;;;;;;;4.77;1.63;;;14.30;83.10;;;;;;5042607;28;20452;-85
2023/01/01 02:38:09;;;;;;;9.93;2.40;;;14.30;81.40;;;;;;5042409;28;20480;-86
2023/01/01 02:40:40;;;;;;;7.30;1.83;;;14.30;82.10;;;;;;5043341;28;20479;-85
2023/01/01 02:43:07;;;;;;;5.10;1.50;;;14.40;81.00;;;;;;5042106;28;20458;-83
2023/01/01 02:45:35;;;;;;;5.50;1.73;;;14.30;82.20;;;;;;5041863;28;20486;-85
2023/01/01 02:48:06;;;;;;;5.80;1.90;;;14.30;81.50;;;;;;5040702;28;20476;-86
2023/01/01 02:50:35;;;;;;;7.37;1.70;;;14.30;80.90;;;;;;5041297;28;20463;-86
2023/01/01 02:53:09;;;;;;;7.93;2.00;;;14.40;81.00;;;;;;5040440;28;20456;-86
2023/01/01 02:55:50;;;;;;;5.33;1.40;;;14.30;80.90;;;;;;5041357;28;20468;-85
2023/01/01 03:01:17;;;;;;;5.50;1.47;;;14.30;83.20;;;;;;4993119;28;20980;-86
2023/01/01 03:03:56;;;;;;;8.50;1.70;;;14.10;84.40;;;;;;5027857;28;20484;-86
2023/01/01 03:06:29;;;;;;;5.63;2.00;;;14.00;83.80;;;;;;5040201;28;20476;-87
2023/01/01 03:09:10;;;;;;;6.83;1.70;;;14.10;82.90;;;;;;5042162;28;20450;-86
2023/01/01 03:11:46;;;;;;;6.73;1.87;;;14.10;83.90;;;;;;5043386;28;20454;-85
2023/01/01 03:14:20;;;;;;;12.13;2.53;;;14.10;84.90;;;;;;5046250;28;20543;-86
2023/01/01 03:16:50;;;;;;;10.90;1.73;;;14.20;84.30;;;;;;5045877;28;20488;-86
2023/01/01 03:19:20;;;;;;;7.40;1.60;;;14.20;82.50;;;;;;5045610;28;20455;-86
2023/01/01 03:21:51;;;;;;;7.10;2.03;;;14.20;83.20;;;;;;5045778;28;20452;-86
2023/01/01 03:24:21;;;;;;;5.13;1.60;;;14.30;84.30;;;;;;5045085;28;20480;-85
2023/01/01 03:26:54;;;;;;;5.50;1.90;;;14.10;84.90;;;;;;5044711;28;20479;-86
2023/01/01 03:29:23;;;;;;;6.20;1.97;;;14.20;83.50;;;;;;5045685;28;20456;-85
2023/01/01 03:31:56;;;;;;;7.10;1.93;;;14.20;82.80;;;;;;5044464;28;20448;-86
2023/01/01 03:34:29;;;;;;;7.17;1.50;;;14.30;83.30;;;;;;5044555;28;20460;-84
2023/01/01 03:36:59;;;;;;;6.80;2.37;;;14.20;83.00;;;;;;5045443;28;20468;-85
2023/01/01 03:39:29;;;;;;;8.10;1.73;;;14.20;84.30;;;;;;5044833;28;20467;-86
2023/01/01 03:42:02;;;;;;;6.57;1.80;;;14.30;84.90;;;;;;5045735;28;20451;-86
2023/01/01 03:44:34;;;;;;;8.53;1.97;;;14.10;87.00;;;;;;5044855;28;20476;-86
2023/01/01 03:47:02;;;;;;;5.30;1.57;;;14.20;82.80;;;;;;5045115;28;20476;-86
2023/01/01 03:49:30;;;;;;;7.63;1.80;;;14.30;84.80;;;;;;5046401;28;20528;-85
2023/01/01 03:52:04;;;;;;;5.00;1.70;;;14.20;84.10;;;;;;5044621;28;20455;-87
2023/01/01 03:54:39;;;;;;;6.90;2.10;;;14.30;87.00;;;;;;5044753;28;20455;-87
2023/01/01 03:57:16;;;;;;;6.27;2.37;;;14.20;85.00;;;;;;5044093;28;20471;-86
2023/01/01 03:59:52;;;;;;;6.63;1.47;;;14.30;86.90;;;;;;5044061;28;20452;-87
2023/01/01 04:02:25;;;;;;;6.23;1.87;;;14.30;85.80;;;;;;5044260;28;20453;-85
2023/01/01 04:04:53;;;;;;;7.37;2.20;;;14.40;86.90;;;;;;5042479;28;20464;-87
2023/01/01 04:07:20;;;;;;;5.27;1.97;;;14.50;84.60;;;;;;5044663;28;20476;-86
2023/01/01 04:09:51;;;;;;;8.30;1.90;;;14.40;85.50;;;;;;5044987;28;20452;-85
2023/01/01 04:12:19;;;;;;;7.53;2.50;;;14.30;85.80;;;;;;5029729;28;20458;-86
2023/01/01 04:14:45;;;;;;;5.37;1.93;;;14.40;84.50;;;;;;5044186;28;20449;-86
2023/01/01 04:17:13;;;;;;;18.53;2.60;;;14.60;84.80;;;;;;5043343;28;20488;-86
2023/01/01 04:19:41;;;;;;;7.27;2.20;;;14.60;85.70;;;;;;5044474;28;20459;-86
2023/01/01 04:22:08;;;;;;;4.60;1.67;;;14.60;84.80;;;;;;5043672;28;20457;-86
2023/01/01 04:24:35;;;;;;;4.80;1.50;;;14.70;85.40;;;;;;5041823;28;20674;-85
2023/01/01 04:27:02;;;;;;;5.50;1.87;;;14.70;85.60;;;;;;5041403;28;20466;-86
2023/01/01 04:29:28;;;;;;;8.07;1.73;;;14.60;86.10;;;;;;5041027;28;20452;-86
2023/01/01 04:31:55;;;;;;;6.40;2.00;;;14.70;87.30;;;;;;5041825;28;20847;-86
2023/01/01 04:34:22;;;;;;;9.50;1.97;;;14.60;86.00;;;;;;5042404;28;20455;-85
2023/01/01 04:36:50;;;;;;;6.57;1.73;;;14.70;86.10;;;;;;5041989;28;20477;-85
2023/01/01 04:39:17;;;;;;;6.03;2.67;;;14.60;87.20;;;;;;5041631;28;20452;-86
2023/01/01 04:41:44;;;;;;;7.67;1.90;;;14.70;86.70;;;;;;5041480;28;20478;-85
2023/01/01 04:44:10;;;;;;;6.00;1.60;;;14.50;87.40;;;;;;5044334;28;20491;-86
2023/01/01 04:46:37;;;;;;;6.63;2.00;;;14.40;87.80;;;;;;5041635;28;20468;-86
2023/01/01 04:49:24;;;;;;;16.43;4.80;;;14.40;88.60;;;;;;5040206;28;20449;-85
2023/01/01 04:51:52;;;;;;;7.83;1.60;;;14.20;88.70;;;;;;5042459;28;20475;-86
2023/01/01 04:54:18;;;;;;;6.27;3.37;;;14.30;90.00;;;;;;5042093;28;20445;-86
2023/01/01 04:56:45;;;;;;;5.60;1.80;;;14.20;88.50;;;;;;5043603;28;20468;-85
2023/01/01 04:59:12;;;;;;;8.10;1.90;;;14.30;89.70;;;;;;5043392;28;20453;-86
2023/01/01 05:01:39;;;;;;;9.47;3.57;;;14.20;88.80;;;;;;5043746;28;20453;-85
2023/01/01 05:04:05;;;;;;;10.67;1.90;;;14.20;89.70;;;;;;5045064;28;20459;-85
2023/01/01 05:06:32;;;;;;;7.00;1.97;;;14.00;90.50;;;;;;5030731;28;20472;-85
2023/01/01 05:09:02;;;;;;;4.67;1.80;;;14.10;89.90;;;;;;5023953;28;20449;-85
2023/01/01 05:11:30;;;;;;;5.90;1.57;;;14.10;90.20;;;;;;5024382;28;20459;-85
2023/01/01 05:13:58;;;;;;;7.50;1.77;;;14.10;89.60;;;;;;5024771;28;20453;-86
2023/01/01 05:16:27;;;;;;;13.13;2.30;;;14.00;90.00;;;;;;5022599;28;20484;-86
2023/01/01 05:18:55;;;;;;;7.13;2.20;;;14.10;89.40;;;;;;5035877;28;20457;-86
2023/01/01 05:21:23;;;;;;;6.00;2.03;;;14.10;89.60;;;;;;5041681;28;20456;-85
2023/01/01 05:23:54;;;;;;;5.17;1.60;;;14.00;90.40;;;;;;5043337;28;20455;-86
2023/01/01 05:26:26;;;;;;;5.60;1.80;;;14.10;90.20;;;;;;5041882;28;20484;-86
2023/01/01 05:28:52;;;;;;;6.53;1.50;;;14.00;90.10;;;;;;5041358;28;20525;-86
2023/01/01 05:31:21;;;;;;;6.00;1.60;;;14.00;90.50;;;;;;5042247;28;20479;-86
2023/01/01 05:33:48;;;;;;;7.73;1.73;;;14.10;90.20;;;;;;5041398;28;20448;-85
2023/01/01 05:36:16;;;;;;;7.00;1.80;;;14.20;90.10;;;;;;5042269;28;20465;-86
2023/01/01 05:38:43;;;;;;;13.07;2.10;;;14.30;90.50;;;;;;5040864;28;20464;-86
2023/01/01 05:41:14;;;;;;;10.30;3.40;;;14.20;90.00;;;;;;5040828;28;20452;-84
2023/01/01 05:43:43;;;;;;;6.10;2.57;;;14.20;90.00;;;;;;5041865;28;20463;-85
2023/01/01 05:46:12;;;;;;;8.27;2.07;;;14.30;90.80;;;;;;5039831;28;20560;-86
2023/01/01 05:48:39;;;;;;;9.13;1.87;;;14.30;90.60;;;;;;5040830;28;20450;-86
2023/01/01 05:51:09;;;;;;;14.50;2.70;;;14.30;90.00;;;;;;5041971;28;20455;-85
2023/01/01 05:53:36;;;;;;;6.00;1.93;;;14.30;89.90;;;;;;5040510;28;20445;-87
2023/01/01 05:56:04;;;;;;;5.73;1.93;;;14.40;89.30;;;;;;5041099;28;20502;-85
2023/01/01 05:58:32;;;;;;;4.20;1.30;;;14.50;90.20;;;;;;5040971;28;20802;-85
2023/01/01 06:01:07;;;;;;;12.27;1.83;;;14.40;90.10;;;;;;5039660;28;20453;-87
2023/01/01 06:03:35;;;;;;;8.63;3.40;;;14.50;90.30;;;;;;5039708;28;20517;-85
2023/01/01 06:06:04;;;;;;;5.70;1.70;;;14.60;90.00;;;;;;5038166;28;20476;-86
2023/01/01 06:08:31;;;;;;;9.23;2.23;;;14.60;90.70;;;;;;5041473;28;20449;-86
2023/01/01 06:10:59;;;;;;;6.43;1.80;;;14.40;91.20;;;;;;5042506;28;20451;-86
2023/01/01 06:13:26;;;;;;;6.90;1.80;;;14.50;90.60;;;;;;5040752;28;20516;-85
2023/01/01 06:15:54;;;;;;;4.60;1.50;;;14.50;91.20;;;;;;5038821;28;20479;-86
2023/01/01 06:18:22;;;;;;;6.27;1.67;;;14.50;90.80;;;;;;5038719;28;20444;-86
2023/01/01 06:20:49;;;;;;;8.97;1.80;;;14.50;91.40;;;;;;5041943;28;20455;-85
2023/01/01 06:23:16;;;;;;;5.87;1.80;;;14.50;91.50;;;;;;5041291;28;20446;-86
2023/01/01 06:25:43;;;;;;;9.77;2.07;;;14.50;91.60;;;;;;5038320;28;20484;-86
2023/01/01 06:28:11;;;;;;;5.23;1.63;;;14.40;92.00;;;;;;5039879;28;20456;-85
2023/01/01 06:30:38;;;;;;;8.03;1.83;;;14.40;91.50;;;;;;5040345;28;20456;-85
2023/01/01 06:33:05;;;;;;;5.53;1.80;;;14.50;91.50;;;;;;5022783;28;20467;-85
2023/01/01 06:35:33;;;;;;;6.13;2.07;;;14.40;91.60;;;;;;5040523;28;20466;-85
2023/01/01 06:38:00;;;;;;;8.80;2.53;;;14.40;91.40;;;;;;5040359;28;20830;-86
2023/01/01 06:40:26;;;;;;;6.00;2.00;;;14.40;91.60;;;;;;5043819;28;20460;-86
2023/01/01 06:42:53;;;;;;;7.13;1.80;;;14.40;92.40;;;;;;5041812;28;20464;-85
2023/01/01 06:45:20;;;;;;;7.43;2.03;;;14.30;92.40;;;;;;5039164;28;20486;-86
2023/01/01 06:47:47;;;;;;;13.37;1.70;;;14.30;92.60;;;;;;5040539;28;20452;-85
2023/01/01 06:50:13;;;;;;;5.67;1.73;;;14.30;91.70;;;;;;5040559;28;20457;-86
2023/01/01 06:52:42;;;;;;;12.37;2.13;;;14.50;91.50;;;;;;5039792;28;20945;-85
2023/01/01 06:55:09;;;;;;;5.20;1.90;;;14.40;91.80;;;;;;5039171;28;20451;-85
2023/01/01 06:57:36;;;;;;;4.70;1.60;;;14.40;91.60;;;;;;5038470;28;20957;-85
2023/01/01 07:00:02;;;;;;;7.50;1.90;;;14.50;91.70;;;;;;5039576;28;20459;-84
2023/01/01 07:02:29;;;;;;;8.30;2.07;;;14.40;91.90;;;;;;5039021;28;20452;-85
2023/01/01 07:04:56;;;;;;;7.77;2.30;;;14.50;91.80;;;;;;5038969;28;20479;-85
2023/01/01 07:07:23;;;;;;;5.80;1.60;;;14.60;91.70;;;;;;5039397;28;20543;-85
2023/01/01 07:09:51;;;;;;;9.37;2.30;;;14.50;92.00;;;;;;5039875;28;20448;-85
2023/01/01 07:12:17;;;;;;;9.00;1.77;;;14.50;92.30;;;;;;5039909;28;20456;-86
2023/01/01 07:14:44;;;;;;;6.30;2.10;;;14.40;92.80;;;;;;5038520;28;20836;-85
2023/01/01 07:17:11;;;;;;;6.50;2.30;;;14.40;92.30;;;;;;5038295;28;20480;-84
2023/01/01 07:19:37;;;;;;;7.03;2.00;;;14.50;92.40;;;;;;5038904;28;20449;-85
2023/01/01 07:22:04;;;;;;;5.90;1.70;;;14.40;92.80;;;;;;5038632;28;20460;-84
2023/01/01 07:24:31;;;;;;;8.50;2.37;;;14.30;92.70;;;;;;5038479;28;20455;-84
2023/01/01 07:26:59;;;;;;;8.80;2.20;;;14.40;92.80;;;;;;5038744;28;20483;-86
2023/01/01 07:29:26;;;;;;;8.00;2.17;;;14.40;93.00;;;;;;5038587;28;20462;-85
2023/01/01 07:31:52;;;;;;;6.93;1.80;;;14.30;93.00;;;;;;5039829;28;20453;-85
2023/01/01 07:34:21;;;;;;;11.93;2.20;;;14.30;93.30;;;;;;5039441;28;20967;-85
2023/01/01 07:36:48;;;;;;;13.03;2.10;;;14.20;94.30;;;;;;5046137;28;20473;-85
2023/01/01 07:39:15;;;;;;;5.87;1.67;;;14.10;95.10;;;;;;5037358;28;20451;-84
2023/01/01 07:41:41;;;;;;;11.20;2.80;;;13.90;95.30;;;;;;5037300;28;20452;-84
2023/01/01 07:44:09;;;;;;;6.17;2.13;;;13.90;95.80;;;;;;5037478;28;20456;-84
2023/01/01 07:46:37;;;;;;;11.77;2.30;;;13.80;96.80;;;;;;5036919;28;20485;-84
2023/01/01 07:49:03;;;;;;;6.27;2.37;;;13.70;98.60;;;;;;5017665;28;20533;-85
2023/01/01 07:51:30;;;;;;;7.80;2.10;;;13.60;98.30;;;;;;5018297;28;20460;-84
2023/01/01 07:53:57;;;;;;;9.33;2.00;;;13.50;97.40;;;;;;5035604;28;20456;-84
2023/01/01 07:56:24;;;;;;;7.90;2.10;;;13.50;97.80;;;;;;5037312;28;20468;-84
2023/01/01 07:58:50;;;;;;;8.53;2.00;;;13.60;98.00;;;;;;5040886;28;20448;-85
2023/01/01 08:01:19;;;;;;;7.00;1.97;;;13.50;98.60;;;;;;5041138;28;20463;-86
2023/01/01 08:03:50;;;;;;;9.50;2.90;;;13.50;98.10;;;;;;5043340;28;20448;-85
2023/01/01 08:06:17;;;;;;;7.17;1.80;;;13.70;97.50;;;;;;5042625;28;20479;-85
2023/01/01 08:08:44;;;;;;;7.40;2.20;;;13.80;97.20;;;;;;5020971;28;20448;-85
2023/01/01 08:11:10;;;;;;;7.40;2.20;;;13.90;96.90;;;;;;5020314;28;20457;-84
2023/01/01 08:13:37;;;;;;;4.77;1.50;;;13.90;97.00;;;;;;5038908;28;20453;-84
2023/01/01 08:16:05;;;;;;;10.60;2.07;;;14.00;96.70;;;;;;5040037;28;20476;-85
2023/01/01 08:18:33;;;;;;;9.20;1.80;;;14.00;96.90;;;;;;5039992;28;20448;-84
2023/01/01 08:20:59;;;;;;;7.27;2.80;;;14.10;96.50;;;;;;5040137;28;20471;-84
2023/01/01 08:23:27;;;;;;;8.07;2.07;;;14.10;96.00;;;;;;5041141;28;20456;-85
2023/01/01 08:25:54;;;;;;;6.47;2.13;;;14.10;96.60;;;;;;5040346;28;20472;-85
2023/01/01 08:28:20;;;;;;;5.87;1.87;;;14.40;96.40;;;;;;5040474;28;20980;-84
2023/01/01 08:30:47;;;;;;;4.87;2.10;;;14.10;96.60;;;;;;5041696;28;20444;-86
2023/01/01 08:33:14;;;;;;;8.77;2.33;;;14.00;96.50;;;;;;5041180;28;20459;-85
2023/01/01 08:35:43;;;;;;;5.53;1.67;;;14.00;96.90;;;;;;5040226;28;20475;-85
2023/01/01 08:38:11;;;;;;;9.47;2.27;;;14.00;96.90;;;;;;5021756;28;20468;-84
2023/01/01 08:40:38;;;;;;;12.27;2.47;;;13.90;96.90;;;;;;5030898;28;20452;-87
2023/01/01 08:43:05;;;;;;;9.67;2.73;;;14.00;96.70;;;;;;5040688;28;20459;-85
2023/01/01 08:45:32;;;;;;;6.83;2.40;;;14.10;96.90;;;;;;5040872;28;20502;-84
2023/01/01 08:47:59;;;;;;;9.00;2.27;;;14.10;97.50;;;;;;5041207;28;20457;-84
2023/01/01 08:50:26;;;;;;;10.07;3.60;;;14.00;97.30;;;;;;5037886;28;20465;-85
2023/01/01 08:52:54;;;;;;;8.80;2.20;;;14.00;97.40;;;;;;5040275;28;20463;-86
2023/01/01 08:55:20;;;;;;;12.60;2.43;;;14.00;97.60;;;;;;5039375;28;20472;-86
2023/01/01 08:57:47;;;;;;;8.80;2.50;;;14.00;97.50;;;;;;5040332;28;20472;-84
2023/01/01 09:00:15;;;;;;;6.90;2.00;;;14.00;97.70;;;;;;5040368;28;20456;-85
2023/01/01 09:02:42;;;;;;;6.53;1.50;;;14.10;98.20;;;;;;5041280;28;20452;-86
2023/01/01 09:05:09;;;;;;;7.73;2.20;;;14.00;98.00;;;;;;5038278;28;21013;-84
2023/01/01 09:07:36;;;;;;;10.03;2.87;;;14.00;98.10;;;;;;5037621;28;20453;-84
2023/01/01 09:10:05;;;;;;;9.03;1.70;;;14.00;98.20;;;;;;5037658;28;20456;-87
2023/01/01 09:12:32;;;;;;;7.93;2.27;;;14.10;98.00;;;;;;5038867;28;20464;-85
2023/01/01 09:14:59;;;;;;;10.10;2.40;;;14.10;98.10;;;;;;5039360;28;20961;-82
2023/01/01 09:17:26;;;;;;;5.17;1.80;;;14.20;97.90;;;;;;5038990;28;20532;-83
2023/01/01 09:19:52;;;;;;;12.37;3.07;;;14.20;98.10;;;;;;5038758;28;20464;-82
2023/01/01 09:22:38;;;;;;;8.10;2.50;;;14.20;98.20;;;;;;5037848;28;20459;-87
2023/01/01 09:28:53;;;;;;;11.00;2.50;;;14.10;98.40;;;;;;5045615;28;20419;-84
2023/01/01 09:31:20;;;;;;;6.17;1.63;;;14.10;98.20;;;;;;5045965;28;20452;-84
2023/01/01 09:33:50;;;;;;;9.97;1.83;;;14.20;98.00;;;;;;5038726;28;20461;-85
2023/01/01 09:36:28;;;;;;;11.33;3.23;;;14.20;98.30;;;;;;5038579;28;20475;-87
2023/01/01 09:45:28;;;;;;;11.57;2.40;;;14.30;98.10;;;;;;5761195;22;20480;-83
2023/01/01 09:48:00;;;;;;;12.00;2.90;;;14.20;97.90;;;;;;4996415;28;20482;-86
2023/01/01 09:50:32;;;;;;;8.30;1.60;;;14.40;97.60;;;;;;4978688;28;20459;-84
2023/01/01 09:53:03;;;;;;;9.07;1.93;;;14.40;97.40;;;;;;4979070;28;20494;-85
2023/01/01 09:55:38;;;;;;;8.83;2.23;;;14.60;97.10;;;;;;4977944;28;20478;-85
2023/01/01 09:58:05;;;;;;;10.03;3.50;;;14.60;97.00;;;;;;4984877;28;20466;-84
2023/01/01 10:00:34;;;;;;;6.57;2.20;;;14.60;97.70;;;;;;4980081;28;20459;-85
2023/01/01 10:03:19;;;;;;;6.93;2.10;;;14.70;97.30;;;;;;4976552;28;20456;-85
2023/01/01 10:05:53;;;;;;;11.90;2.27;;;14.50;97.40;;;;;;4978934;28;20925;-85
2023/01/01 10:08:34;;;;;;;6.90;1.90;;;14.50;97.10;;;;;;4979564;28;20523;-86
2023/01/01 10:11:21;;;;;;;8.27;2.10;;;14.60;97.70;;;;;;4982703;28;20469;-85
2023/01/01 10:13:48;;;;;;;11.23;2.30;;;14.50;97.30;;;;;;4972136;28;20459;-84
2023/01/01 10:19:54;;;;;;;8.43;2.40;;;14.60;97.10;;;;;;4980839;28;20480;-85
2023/01/01 10:22:40;;;;;;;7.07;2.63;;;14.70;98.30;;;;;;4981424;28;20459;-85
2023/01/01 10:25:18;;;;;;;7.37;2.07;;;14.60;97.80;;;;;;4966803;28;21078;-87
2023/01/01 10:27:49;;;;;;;11.10;2.50;;;14.60;97.00;;;;;;4973066;28;20487;-85
2023/01/01 10:30:18;;;;;;;8.30;2.10;;;14.60;97.40;;;;;;4981846;28;20455;-85
2023/01/01 10:32:48;;;;;;;6.90;1.90;;;14.40;97.20;;;;;;4982322;28;20972;-87
2023/01/01 10:35:18;;;;;;;6.50;1.97;;;14.50;97.60;;;;;;4981117;28;20977;-86
2023/01/01 10:37:45;;;;;;;5.83;1.80;;;14.50;97.60;;;;;;4982196;28;20460;-86
2023/01/01 10:40:17;;;;;;;7.67;2.03;;;14.40;97.60;;;;;;4982207;28;20462;-85
2023/01/01 10:42:48;;;;;;;7.67;2.87;;;14.40;98.00;;;;;;4981835;28;20523;-85
2023/01/01 10:45:17;;;;;;;8.33;2.10;;;14.40;97.40;;;;;;4960911;29;21017;-86
2023/01/01 10:48:11;;;;;;;5.57;1.50;;;14.40;97.90;;;;;;4963597;28;20490;-86
2023/01/01 10:54:16;;;;;;;;;;;;;;;;;;;;;
2023/01/01 11:00:22;;;;;;;11.50;1.90;;;14.40;98.20;;;;;;4903081;28;20469;-85
2023/01/01 11:03:05;;;;;;;9.67;2.20;;;14.40;98.30;;;;;;4963466;28;20464;-85
2023/01/01 11:05:32;;;;;;;10.50;2.40;;;14.50;98.60;;;;;;4981260;28;20891;-85
2023/01/01 11:07:59;;;;;;;5.90;2.10;;;14.40;98.30;;;;;;4979653;28;20489;-86
2023/01/01 11:10:28;;;;;;;10.33;2.20;;;14.30;98.30;;;;;;4981034;28;20462;-84
2023/01/01 11:12:54;;;;;;;8.10;2.30;;;14.40;98.40;;;;;;4979033;28;20467;-85
2023/01/01 11:15:30;;;;;;;4.93;1.37;;;14.40;98.30;;;;;;4980171;28;20471;-85
2023/01/01 11:18:04;;;;;;;6.43;1.50;;;14.40;97.70;;;;;;4966499;28;20536;-85
2023/01/01 11:20:33;;;;;;;9.50;2.00;;;14.50;97.30;;;;;;4962262;28;20547;-86
2023/01/01 11:26:23;;;;;;;12.27;2.53;;;14.50;97.00;;;;;;4968833;28;20493;-85
2023/01/01 11:29:01;;;;;;;5.00;1.40;;;14.60;96.90;;;;;;4961610;28;20518;-83
2023/01/01 11:31:34;;;;;;;13.20;2.20;;;14.50;97.40;;;;;;4974146;28;20465;-86
2023/01/01 11:34:01;;;;;;;7.60;2.10;;;14.60;97.00;;;;;;4985031;28;20455;-83
2023/01/01 11:36:31;;;;;;;7.90;1.83;;;14.60;97.00;;;;;;4974267;28;20456;-85
2023/01/01 11:39:19;;;;;;;7.67;2.17;;;14.80;97.00;;;;;;4966865;28;20459;-86
2023/01/01 11:41:49;;;;;;;8.20;1.80;;;14.80;96.90;;;;;;4979061;28;20452;-86
2023/01/01 11:44:47;;;;;;;6.47;2.03;;;14.90;96.40;;;;;;4983670;28;20460;-85
2023/01/01 11:47:24;;;;;;;9.87;2.03;;;14.80;96.30;;;;;;4965105;28;20494;-86
2023/01/01 11:49:55;;;;;;;7.80;1.90;;;14.90;96.70;;;;;;4976887;28;20532;-87
2023/01/01 11:52:38;;;;;;;9.00;2.20;;;14.80;96.10;;;;;;4985099;28;20456;-86
2023/01/01 11:55:18;;;;;;;11.17;2.47;;;15.00;96.40;;;;;;4981949;28;20538;-85
2023/01/01 11:57:52;;;;;;;11.03;2.03;;;15.00;95.50;;;;;;4984550;28;20946;-87
2023/01/01 12:00:19;;;;;;;7.40;1.73;;;15.10;96.00;;;;;;4978749;28;20457;-87
2023/01/01 12:02:54;;;;;;;8.33;2.40;;;15.00;96.10;;;;;;4966624;29;20454;-85
2023/01/01 12:05:24;;;;;;;7.80;2.10;;;15.00;95.50;;;;;;4972520;28;20953;-86
2023/01/01 12:07:52;;;;;;;8.50;2.40;;;14.90;96.20;;;;;;4986010;28;20484;-85
2023/01/01 12:10:23;;;;;;;9.33;1.93;;;14.70;95.80;;;;;;4983535;28;20972;-85
2023/01/01 12:12:57;;;;;;;7.17;2.40;;;14.80;95.60;;;;;;4985215;28;20491;-85
2023/01/01 12:15:29;;;;;;;7.53;2.10;;;14.80;95.30;;;;;;4978486;28;20555;-86
2023/01/01 12:18:03;;;;;;;5.73;2.07;;;14.90;95.30;;;;;;4966577;29;20904;-85
2023/01/01 12:20:34;;;;;;;8.70;2.23;;;14.80;95.70;;;;;;4970827;28;20456;-87
2023/01/01 12:23:02;;;;;;;8.17;1.77;;;14.70;95.80;;;;;;4967209;28;20463;-85
2023/01/01 12:25:38;;;;;;;5.43;1.60;;;14.70;95.20;;;;;;4970066;28;20479;-87
2023/01/01 12:28:41;;;;;;;8.90;2.47;;;14.70;95.00;;;;;;4984029;28;20474;-84
2023/01/01 12:31:33;;;;;;;6.73;1.80;;;14.60;95.50;;;;;;4967125;28;20466;-86
2023/01/01 12:34:16;;;;;;;5.73;2.10;;;14.60;95.60;;;;;;4974474;28;20627;-85
2023/01/01 12:36:51;;;;;;;6.23;1.73;;;14.60;95.80;;;;;;4984213;28;20527;-85
2023/01/01 12:39:48;;;;;;;7.20;2.00;;;14.60;94.80;;;;;;4973277;28;20495;-86
2023/01/01 12:42:20;;;;;;;9.10;1.90;;;14.60;95.30;;;;;;4967119;28;20543;-86
2023/01/01 12:44:59;;;;;;;7.00;1.80;;;14.50;95.00;;;;;;4981462;28;20483;-85
2023/01/01 12:47:59;;;;;;;6.13;1.93;;;14.50;94.70;;;;;;4985709;28;20864;-85
2023/01/01 12:57:10;;;;;;;7.10;2.10;;;14.50;95.20;;;;;;4928257;28;20441;-85
2023/01/01 13:13:13;;;;;;;11.57;2.20;;;14.40;96.20;;;;;;4943883;28;20452;-85
2023/01/01 13:15:54;;;;;;;5.10;1.60;;;14.40;96.20;;;;;;4968294;28;20466;-85
2023/01/01 13:18:24;;;;;;;9.30;2.60;;;14.30;96.10;;;;;;4963704;29;20437;-86
2023/01/01 13:20:57;;;;;;;7.70;1.77;;;14.20;96.70;;;;;;4972176;28;20451;-85
2023/01/01 13:23:44;;;;;;;6.53;1.80;;;14.20;95.90;;;;;;4982799;28;20447;-84
2023/01/01 13:26:41;;;;;;;10.33;2.30;;;14.10;96.00;;;;;;4972521;28;20478;-85
2023/01/01 13:29:33;;;;;;;8.43;1.83;;;14.10;96.40;;;;;;4964033;28;20897;-84
2023/01/01 13:32:04;;;;;;;7.50;1.90;;;14.10;96.00;;;;;;4980568;28;20953;-85
2023/01/01 13:38:03;;;;;;;10.50;2.00;;;14.10;95.60;;;;;;4962784;28;20460;-85
2023/01/01 13:40:54;;;;;;;11.30;2.10;;;14.00;95.20;;;;;;4964702;28;20456;-85
2023/01/01 13:43:50;;;;;;;10.30;1.90;;;14.10;95.60;;;;;;4964058;28;20476;-84
2023/01/01 13:46:22;;;;;;;10.50;1.73;;;14.10;95.90;;;;;;4958925;28;20480;-84
2023/01/01 13:49:06;;;;;;;8.47;2.33;;;14.10;96.00;;;;;;4966607;28;20867;-85
2023/01/01 13:51:55;;;;;;;8.90;1.80;;;14.00;96.20;;;;;;4983132;28;20462;-85
2023/01/01 13:54:46;;;;;;;9.27;2.00;;;14.00;96.00;;;;;;4976511;28;20486;-85